Time;durP1;ratioP1;P1;durP2;ratioP2;P2;SDS_P1;SDS_P2;PMS_P1;PMS_P2;Temp;Humidity;BMP_temperature;BMP_pressure;BME280_temperature;BME280_humidity;BME280_pressure;Samples;Min_cycle;Max_cycle;Signal;HPM_P1;HPM_P2
2023/12/19 00:01:10;;;;;;;;;;;8.60;99.90;;;;;;4944835;28;19945;-67
2023/12/19 00:03:35;;;;;;;;;;;8.70;99.90;;;;;;4948517;28;19914;-67
2023/12/19 00:06:01;;;;;;;;;;;8.60;99.90;;;;;;4943119;28;19936;-67
2023/12/19 00:08:29;;;;;;;;;;;8.70;99.90;;;;;;4945765;28;19953;-67
2023/12/19 00:10:54;;;;;;;;;;;8.70;99.90;;;;;;4944064;28;20315;-67
2023/12/19 00:13:22;;;;;;;;;;;8.60;99.90;;;;;;4946513;28;20302;-67
2023/12/19 00:15:50;;;;;;;;;;;8.60;99.90;;;;;;4943546;28;20180;-67
2023/12/19 00:18:15;;;;;;;;;;;8.70;99.90;;;;;;4950334;28;19925;-67
2023/12/19 00:20:41;;;;;;;;;;;8.70;99.90;;;;;;4944065;28;19922;-67
2023/12/19 00:23:06;;;;;;;;;;;8.70;99.90;;;;;;4945622;28;19922;-67
2023/12/19 00:25:32;;;;;;;;;;;8.70;99.90;;;;;;4944249;28;19926;-67
2023/12/19 00:27:58;;;;;;;;;;;8.70;99.90;;;;;;4944052;28;20684;-67
2023/12/19 00:30:25;;;;;;;;;;;8.80;99.90;;;;;;4945994;28;20814;-67
2023/12/19 00:32:51;;;;;;;;;;;8.80;99.90;;;;;;4946250;28;19918;-67
2023/12/19 00:35:19;;;;;;;;;;;8.80;99.90;;;;;;4943546;28;20493;-67
2023/12/19 00:37:44;;;;;;;;;;;8.80;99.90;;;;;;4944191;28;19914;-67
2023/12/19 00:40:15;;;;;;;;;;;8.80;99.90;;;;;;4946712;28;19922;-67
2023/12/19 00:42:43;;;;;;;;;;;8.80;99.90;;;;;;4943467;28;20456;-67
2023/12/19 00:45:08;;;;;;;;;;;8.80;99.90;;;;;;4943186;28;19926;-67
2023/12/19 00:47:34;;;;;;;;;;;8.90;99.90;;;;;;4948392;23;19941;-67
2023/12/19 00:50:02;;;;;;;;;;;8.90;99.90;;;;;;4938033;28;20325;-67
2023/12/19 00:52:29;;;;;;;;;;;8.90;99.90;;;;;;4936594;28;19925;-67
2023/12/19 00:54:55;;;;;;;;;;;8.90;99.90;;;;;;4939828;28;20040;-67
2023/12/19 00:57:23;;;;;;;;;;;8.90;99.90;;;;;;4936941;28;19922;-68
2023/12/19 00:59:51;;;;;;;;;;;8.80;99.90;;;;;;4938770;28;20086;-67
2023/12/19 01:02:19;;;;;;;;;;;8.90;99.90;;;;;;4949117;28;19922;-67
2023/12/19 01:04:44;;;;;;;;;;;8.80;99.90;;;;;;4939343;28;21978;-67
2023/12/19 01:07:10;;;;;;;;;;;8.80;99.90;;;;;;4937289;28;20779;-67
2023/12/19 01:09:37;;;;;;;;;;;8.80;99.90;;;;;;4937541;28;19935;-67
2023/12/19 01:12:03;;;;;;;;;;;8.90;99.90;;;;;;4938350;28;19961;-67
2023/12/19 01:14:28;;;;;;;;;;;8.80;99.90;;;;;;4938537;28;19926;-67
2023/12/19 01:16:54;;;;;;;;;;;8.80;99.90;;;;;;4934816;28;20004;-67
2023/12/19 01:19:19;;;;;;;;;;;8.80;99.90;;;;;;4938385;28;20013;-67
2023/12/19 01:21:45;;;;;;;;;;;8.80;99.90;;;;;;4936640;28;19918;-67
2023/12/19 01:24:10;;;;;;;;;;;8.80;99.90;;;;;;4939208;28;19918;-67
2023/12/19 01:26:40;;;;;;;;;;;8.80;99.90;;;;;;4937186;28;19930;-67
2023/12/19 01:29:11;;;;;;;;;;;8.90;99.90;;;;;;4951986;28;21676;-67
2023/12/19 01:31:36;;;;;;;;;;;8.80;99.90;;;;;;4937715;28;20171;-67
2023/12/19 01:34:04;;;;;;;;;;;8.80;99.90;;;;;;4937109;28;19922;-67
2023/12/19 01:36:30;;;;;;;;;;;8.90;99.90;;;;;;4937780;28;19918;-67
2023/12/19 01:38:55;;;;;;;;;;;8.80;99.90;;;;;;4951386;28;19918;-67
2023/12/19 01:41:22;;;;;;;;;;;8.80;99.90;;;;;;4939638;28;19962;-67
2023/12/19 01:43:47;;;;;;;;;;;8.80;99.90;;;;;;4937930;28;19925;-67
2023/12/19 01:46:15;;;;;;;;;;;8.80;99.90;;;;;;4937313;28;19965;-67
2023/12/19 01:48:40;;;;;;;;;;;8.80;99.90;;;;;;4935367;28;19926;-67
2023/12/19 01:51:06;;;;;;;;;;;8.80;99.90;;;;;;4937774;28;19945;-67
2023/12/19 01:53:32;;;;;;;;;;;8.80;99.90;;;;;;4936203;28;19969;-67
2023/12/19 01:55:57;;;;;;;;;;;8.70;99.90;;;;;;4938903;28;20360;-67
2023/12/19 01:58:25;;;;;;;;;;;8.70;99.90;;;;;;4937235;28;19964;-67
2023/12/19 02:00:53;;;;;;;;;;;8.80;99.90;;;;;;4936302;28;19957;-67
2023/12/19 02:03:19;;;;;;;;;;;8.80;99.90;;;;;;4935355;28;20301;-67
2023/12/19 02:05:46;;;;;;;;;;;8.80;99.90;;;;;;4936774;28;19957;-67
2023/12/19 02:08:11;;;;;;;;;;;8.80;99.90;;;;;;4936416;28;19918;-67
2023/12/19 02:10:37;;;;;;;;;;;8.80;99.90;;;;;;4938064;28;20323;-68
2023/12/19 02:13:02;;;;;;;;;;;8.80;99.90;;;;;;4936467;28;19929;-67
2023/12/19 02:15:28;;;;;;;;;;;8.80;99.90;;;;;;4938495;28;20092;-67
2023/12/19 02:17:53;;;;;;;;;;;8.80;99.90;;;;;;4937208;28;20045;-67
2023/12/19 02:20:19;;;;;;;;;;;8.80;99.90;;;;;;4940077;28;19922;-67
2023/12/19 02:22:50;;;;;;;;;;;8.80;99.90;;;;;;4936052;28;21175;-67
2023/12/19 02:25:18;;;;;;;;;;;8.80;99.90;;;;;;4936225;28;20401;-67
2023/12/19 02:27:44;;;;;;;;;;;8.80;99.90;;;;;;4934413;28;19922;-67
2023/12/19 02:30:10;;;;;;;;;;;8.80;99.90;;;;;;4937156;28;19922;-67
2023/12/19 02:32:38;;;;;;;;;;;8.80;99.90;;;;;;4934626;28;20188;-67
2023/12/19 02:35:03;;;;;;;;;;;8.80;99.90;;;;;;4936068;28;20637;-67
2023/12/19 02:37:29;;;;;;;;;;;8.90;99.90;;;;;;4936915;28;19929;-67
2023/12/19 02:39:54;;;;;;;;;;;8.80;99.90;;;;;;4936004;28;19980;-67
2023/12/19 02:42:20;;;;;;;;;;;8.80;99.90;;;;;;4936786;28;19973;-67
2023/12/19 02:44:45;;;;;;;;;;;8.80;99.90;;;;;;4936961;28;19926;-67
2023/12/19 02:47:13;;;;;;;;;;;8.90;99.90;;;;;;4935553;28;20649;-67
2023/12/19 02:49:41;;;;;;;;;;;8.80;99.90;;;;;;4935261;28;19960;-67
2023/12/19 02:52:08;;;;;;;;;;;8.80;99.90;;;;;;4935666;28;19970;-67
2023/12/19 02:54:34;;;;;;;;;;;8.80;99.90;;;;;;4936899;28;19996;-67
2023/12/19 02:56:59;;;;;;;;;;;8.80;99.90;;;;;;4934253;28;20367;-67
2023/12/19 02:59:25;;;;;;;;;;;8.80;99.90;;;;;;4936541;28;19923;-67
2023/12/19 03:01:50;;;;;;;;;;;8.80;99.90;;;;;;4941601;28;19929;-67
2023/12/19 03:04:16;;;;;;;;;;;8.90;99.90;;;;;;4937192;28;19925;-67
2023/12/19 03:06:41;;;;;;;;;;;8.80;99.90;;;;;;4935865;28;20565;-67
2023/12/19 03:09:07;;;;;;;;;;;8.80;99.90;;;;;;4935804;28;20017;-67
2023/12/19 03:11:37;;;;;;;;;;;8.80;99.90;;;;;;4935196;28;20613;-67
2023/12/19 03:14:02;;;;;;;;;;;8.80;99.90;;;;;;4935331;28;19933;-67
2023/12/19 03:16:28;;;;;;;;;;;8.80;99.90;;;;;;4935685;28;20488;-67
2023/12/19 03:18:53;;;;;;;;;;;8.80;99.90;;;;;;4936199;28;20103;-67
2023/12/19 03:21:18;;;;;;;;;;;8.80;99.90;;;;;;4937657;28;19922;-67
2023/12/19 03:23:44;;;;;;;;;;;8.80;99.90;;;;;;4935024;28;19923;-67
2023/12/19 03:26:12;;;;;;;;;;;8.80;99.90;;;;;;4937772;28;20377;-67
2023/12/19 03:28:37;;;;;;;;;;;8.80;99.90;;;;;;4935396;28;19922;-68
2023/12/19 03:31:03;;;;;;;;;;;8.80;99.90;;;;;;4937034;28;19940;-67
2023/12/19 03:33:29;;;;;;;;;;;8.70;99.90;;;;;;4936902;28;21914;-67
2023/12/19 03:35:55;;;;;;;;;;;8.80;99.90;;;;;;4941267;28;20586;-68
2023/12/19 03:38:21;;;;;;;;;;;8.80;99.90;;;;;;4940519;28;20547;-67
2023/12/19 03:40:46;;;;;;;;;;;8.90;99.90;;;;;;4941881;28;19919;-67
2023/12/19 03:43:12;;;;;;;;;;;8.80;99.90;;;;;;4943510;28;19926;-67
2023/12/19 03:45:40;;;;;;;;;;;8.80;99.90;;;;;;4944983;28;20508;-67
2023/12/19 03:48:05;;;;;;;;;;;8.80;99.90;;;;;;4942182;28;20495;-67
2023/12/19 03:50:31;;;;;;;;;;;8.80;99.90;;;;;;4945287;28;20008;-67
2023/12/19 03:52:56;;;;;;;;;;;8.80;99.90;;;;;;4941933;28;19928;-67
2023/12/19 03:55:22;;;;;;;;;;;8.90;99.90;;;;;;4944323;28;19922;-67
2023/12/19 03:57:47;;;;;;;;;;;8.90;99.90;;;;;;4943374;28;20571;-67
2023/12/19 04:00:13;;;;;;;;;;;8.90;99.90;;;;;;4944162;28;19953;-67
2023/12/19 04:02:38;;;;;;;;;;;8.90;99.90;;;;;;4942467;28;19922;-67
2023/12/19 04:05:04;;;;;;;;;;;9.00;99.90;;;;;;4944675;28;20044;-67
2023/12/19 04:07:32;;;;;;;;;;;8.90;99.90;;;;;;4941993;28;19921;-67
2023/12/19 04:10:00;;;;;;;;;;;9.00;99.90;;;;;;4944622;28;20001;-67
2023/12/19 04:12:25;;;;;;;;;;;9.00;99.90;;;;;;4942667;28;19922;-67
2023/12/19 04:14:51;;;;;;;;;;;8.80;99.90;;;;;;4943716;28;19914;-67
2023/12/19 04:17:16;;;;;;;;;;;8.80;99.90;;;;;;4943598;28;19922;-67
2023/12/19 04:19:44;;;;;;;;;;;8.70;99.90;;;;;;4942425;28;19926;-67
2023/12/19 04:22:10;;;;;;;;;;;8.70;99.90;;;;;;4943433;28;19918;-67
2023/12/19 04:24:37;;;;;;;;;;;8.70;99.90;;;;;;4943144;28;20613;-67
2023/12/19 04:27:03;;;;;;;;;;;8.70;99.90;;;;;;4942690;28;19922;-67
2023/12/19 04:29:28;;;;;;;;;;;8.70;99.90;;;;;;4942278;28;19933;-67
2023/12/19 04:31:56;;;;;;;;;;;8.70;99.90;;;;;;4942130;28;19981;-67
2023/12/19 04:34:22;;;;;;;;;;;8.70;99.90;;;;;;4943554;28;19914;-67
2023/12/19 04:36:47;;;;;;;;;;;8.70;99.90;;;;;;4942853;28;20424;-67
2023/12/19 04:39:12;;;;;;;;;;;8.80;99.90;;;;;;4942088;28;19937;-67
2023/12/19 04:41:38;;;;;;;;;;;8.80;99.90;;;;;;4941781;28;19961;-67
2023/12/19 04:44:06;;;;;;;;;;;8.80;99.90;;;;;;4941561;28;19922;-67
2023/12/19 04:46:32;;;;;;;;;;;8.80;99.90;;;;;;4941721;28;20021;-67
2023/12/19 04:48:57;;;;;;;;;;;8.70;99.90;;;;;;4944811;28;20372;-67
2023/12/19 04:51:23;;;;;;;;;;;8.80;99.90;;;;;;4943462;28;19933;-67
2023/12/19 04:53:48;;;;;;;;;;;8.70;99.90;;;;;;4942173;28;22149;-67
2023/12/19 04:56:14;;;;;;;;;;;8.80;99.90;;;;;;4942721;28;20369;-67
2023/12/19 04:58:40;;;;;;;;;;;8.80;99.90;;;;;;4940252;28;19933;-67
2023/12/19 05:01:07;;;;;;;;;;;8.80;99.90;;;;;;4942307;28;19969;-67
2023/12/19 05:03:37;;;;;;;;;;;8.80;99.90;;;;;;4940689;28;20141;-67
2023/12/19 05:06:06;;;;;;;;;;;8.80;99.90;;;;;;4941922;28;20343;-67
2023/12/19 05:08:33;;;;;;;;;;;8.80;99.90;;;;;;4940020;28;20469;-67
2023/12/19 05:10:59;;;;;;;;;;;8.80;99.90;;;;;;4942055;28;20065;-67
2023/12/19 05:13:26;;;;;;;;;;;8.80;99.90;;;;;;4941327;28;19922;-67
2023/12/19 05:15:53;;;;;;;;;;;8.70;99.90;;;;;;4941745;28;19953;-67
2023/12/19 05:18:21;;;;;;;;;;;8.80;99.90;;;;;;4939821;28;20041;-67
2023/12/19 05:20:49;;;;;;;;;;;8.70;99.90;;;;;;4945325;28;20017;-67
2023/12/19 05:23:15;;;;;;;;;;;8.70;99.90;;;;;;4941680;28;20090;-67
2023/12/19 05:25:40;;;;;;;;;;;8.70;99.90;;;;;;4941869;28;20376;-67
2023/12/19 05:28:08;;;;;;;;;;;8.60;99.90;;;;;;4939441;28;20142;-67
2023/12/19 05:30:34;;;;;;;;;;;8.70;99.90;;;;;;4942021;28;22246;-67
2023/12/19 05:32:59;;;;;;;;;;;8.60;99.90;;;;;;4943175;28;20048;-67
2023/12/19 05:35:25;;;;;;;;;;;8.70;99.90;;;;;;4945213;28;20617;-67
2023/12/19 05:37:50;;;;;;;;;;;8.70;99.90;;;;;;4939338;28;19918;-67
2023/12/19 05:40:17;;;;;;;;;;;8.70;99.90;;;;;;4942077;28;19930;-67
2023/12/19 05:42:43;;;;;;;;;;;8.70;99.90;;;;;;4940332;28;19946;-67
2023/12/19 05:45:08;;;;;;;;;;;8.70;99.90;;;;;;4940176;28;20365;-67
2023/12/19 05:47:34;;;;;;;;;;;8.70;99.90;;;;;;4940548;28;19926;-67
2023/12/19 05:50:02;;;;;;;;;;;8.70;99.90;;;;;;4942218;28;20395;-67
2023/12/19 05:52:32;;;;;;;;;;;8.60;99.90;;;;;;4955037;28;19922;-67
2023/12/19 05:54:58;;;;;;;;;;;8.60;99.90;;;;;;4940466;28;19918;-67
2023/12/19 05:57:24;;;;;;;;;;;8.50;99.90;;;;;;4938950;28;19929;-67
2023/12/19 05:59:49;;;;;;;;;;;8.60;99.90;;;;;;4940663;28;20040;-67
2023/12/19 06:02:15;;;;;;;;;;;8.60;99.90;;;;;;4939143;28;19968;-67
2023/12/19 06:04:40;;;;;;;;;;;8.70;99.90;;;;;;4940361;28;19922;-67
2023/12/19 06:07:06;;;;;;;;;;;8.50;99.90;;;;;;4940393;28;19934;-68
2023/12/19 06:09:31;;;;;;;;;;;8.50;99.90;;;;;;4941121;28;20456;-67
2023/12/19 06:11:57;;;;;;;;;;;8.50;99.90;;;;;;4939526;28;19969;-67
2023/12/19 06:14:25;;;;;;;;;;;8.60;99.90;;;;;;4941941;28;19929;-67
2023/12/19 06:16:52;;;;;;;;;;;8.60;99.90;;;;;;4939957;28;19991;-67
2023/12/19 06:19:18;;;;;;;;;;;8.60;99.90;;;;;;4938631;28;20396;-67
2023/12/19 06:21:46;;;;;;;;;;;8.60;99.90;;;;;;4938592;28;19922;-67
2023/12/19 06:24:13;;;;;;;;;;;8.60;99.90;;;;;;4942033;28;19945;-67
2023/12/19 06:26:39;;;;;;;;;;;8.60;99.90;;;;;;4939467;28;19926;-67
2023/12/19 06:29:08;;;;;;;;;;;8.50;99.90;;;;;;4939620;28;20688;-67
2023/12/19 06:31:40;;;;;;;;;;;8.60;99.90;;;;;;4939195;28;20585;-67
2023/12/19 06:34:06;;;;;;;;;;;8.60;99.90;;;;;;4942375;28;20389;-68
2023/12/19 06:36:31;;;;;;;;;;;8.70;99.90;;;;;;4940471;28;19933;-67
2023/12/19 06:38:57;;;;;;;;;;;8.70;99.90;;;;;;4936560;28;19922;-67
2023/12/19 06:41:22;;;;;;;;;;;8.70;99.90;;;;;;4938957;28;19965;-67
2023/12/19 06:43:48;;;;;;;;;;;8.70;99.90;;;;;;4940839;28;19968;-67
2023/12/19 06:48:42;;;;;;;;;;;8.60;99.90;;;;;;4963938;23;19940;-67
2023/12/19 06:51:08;;;;;;;;;;;8.60;99.90;;;;;;4968189;28;19921;-67
2023/12/19 06:53:38;;;;;;;;;;;8.70;99.90;;;;;;4976720;28;20149;-67
2023/12/19 06:56:06;;;;;;;;;;;8.70;99.90;;;;;;4964021;28;19921;-67
2023/12/19 06:58:32;;;;;;;;;;;8.60;99.90;;;;;;4953439;28;20590;-67
2023/12/19 07:00:57;;;;;;;;;;;8.50;99.90;;;;;;4955761;28;19932;-67
2023/12/19 07:03:22;;;;;;;;;;;8.50;99.90;;;;;;4954922;28;20181;-67
2023/12/19 07:05:48;;;;;;;;;;;8.60;99.90;;;;;;4956733;28;19926;-67
2023/12/19 07:08:13;;;;;;;;;;;8.50;99.90;;;;;;4953728;28;19933;-67
2023/12/19 07:10:41;;;;;;;;;;;8.50;99.90;;;;;;4959726;28;19926;-67
2023/12/19 07:13:09;;;;;;;;;;;8.40;99.90;;;;;;4960605;28;20051;-67
2023/12/19 07:15:35;;;;;;;;;;;8.40;99.90;;;;;;4961750;28;20886;-68
2023/12/19 07:18:00;;;;;;;;;;;8.40;99.90;;;;;;4959522;28;19922;-67
2023/12/19 07:20:25;;;;;;;;;;;8.40;99.90;;;;;;4961254;28;19922;-67
2023/12/19 07:22:51;;;;;;;;;;;8.40;99.90;;;;;;4960446;28;19914;-67
2023/12/19 07:25:17;;;;;;;;;;;8.30;99.90;;;;;;4958454;28;20300;-67
2023/12/19 07:27:44;;;;;;;;;;;8.30;99.90;;;;;;4959551;28;19921;-67
2023/12/19 07:30:11;;;;;;;;;;;8.20;99.90;;;;;;4955091;28;20020;-67
2023/12/19 07:32:36;;;;;;;;;;;8.20;99.90;;;;;;4957881;28;19921;-67
2023/12/19 07:35:02;;;;;;;;;;;8.30;99.90;;;;;;4957976;28;19928;-67
2023/12/19 07:37:30;;;;;;;;;;;8.20;99.90;;;;;;4956655;28;20395;-67
2023/12/19 07:39:56;;;;;;;;;;;8.20;99.90;;;;;;4956313;28;19984;-67
2023/12/19 07:42:24;;;;;;;;;;;8.20;99.90;;;;;;4957936;28;19918;-67
2023/12/19 07:44:51;;;;;;;;;;;8.20;99.90;;;;;;4956479;28;20385;-67
2023/12/19 07:47:19;;;;;;;;;;;8.20;99.90;;;;;;4956763;28;20383;-67
2023/12/19 07:49:44;;;;;;;;;;;8.20;99.90;;;;;;4956671;28;19921;-67
2023/12/19 07:52:10;;;;;;;;;;;8.20;99.90;;;;;;4958032;28;19922;-67
2023/12/19 07:54:36;;;;;;;;;;;8.10;99.90;;;;;;4955487;28;19922;-67
2023/12/19 07:57:01;;;;;;;;;;;8.20;99.90;;;;;;4958687;28;19921;-67
2023/12/19 07:59:29;;;;;;;;;;;8.20;99.90;;;;;;4956035;28;19922;-67
2023/12/19 08:01:54;;;;;;;;;;;8.20;99.90;;;;;;4953169;28;19922;-67
2023/12/19 08:04:20;;;;;;;;;;;8.20;99.90;;;;;;4953234;28;19922;-67
2023/12/19 08:06:47;;;;;;;;;;;8.20;99.90;;;;;;4956532;28;19930;-67
2023/12/19 08:09:15;;;;;;;;;;;8.40;99.90;;;;;;4954939;28;19937;-67
2023/12/19 08:11:40;;;;;;;;;;;8.30;99.90;;;;;;4955771;28;19929;-67
2023/12/19 08:14:07;;;;;;;;;;;8.30;99.90;;;;;;4954973;28;20020;-67
2023/12/19 08:16:32;;;;;;;;;;;8.40;99.90;;;;;;4959018;28;20404;-67
2023/12/19 08:19:00;;;;;;;;;;;8.30;99.90;;;;;;4957352;28;19922;-67
2023/12/19 08:21:25;;;;;;;;;;;8.30;99.90;;;;;;4962590;28;19922;-67
2023/12/19 08:23:51;;;;;;;;;;;8.40;99.90;;;;;;4961759;28;19933;-67
2023/12/19 08:26:17;;;;;;;;;;;8.30;99.90;;;;;;4965647;28;20400;-67
2023/12/19 08:28:43;;;;;;;;;;;8.40;99.90;;;;;;4961788;28;19918;-67
2023/12/19 08:31:08;;;;;;;;;;;8.40;99.90;;;;;;4961857;28;19977;-67
2023/12/19 08:33:34;;;;;;;;;;;8.40;99.90;;;;;;4959639;28;19944;-67
2023/12/19 08:35:59;;;;;;;;;;;8.40;99.90;;;;;;4961511;28;19922;-67
2023/12/19 08:38:25;;;;;;;;;;;8.40;99.90;;;;;;4960449;28;20129;-67
2023/12/19 08:40:50;;;;;;;;;;;8.40;99.90;;;;;;4963394;28;19984;-67
2023/12/19 08:43:19;;;;;;;;;;;8.40;99.90;;;;;;4960978;28;19921;-67
2023/12/19 08:45:45;;;;;;;;;;;8.40;99.90;;;;;;4960540;28;19996;-67
2023/12/19 08:48:13;;;;;;;;;;;8.40;99.90;;;;;;4958953;28;20412;-67
2023/12/19 08:50:38;;;;;;;;;;;8.40;99.90;;;;;;4962226;28;20209;-67
2023/12/19 08:53:06;;;;;;;;;;;8.30;99.90;;;;;;4958475;28;19960;-67
2023/12/19 08:55:32;;;;;;;;;;;8.40;99.90;;;;;;4960044;28;19922;-67
2023/12/19 08:57:57;;;;;;;;;;;8.40;99.90;;;;;;4961284;28;19918;-67
2023/12/19 09:00:25;;;;;;;;;;;8.40;99.90;;;;;;4958111;28;19932;-67
2023/12/19 09:02:53;;;;;;;;;;;8.40;99.90;;;;;;4958879;28;19921;-68
2023/12/19 09:05:19;;;;;;;;;;;8.40;99.90;;;;;;4960400;28;19922;-67
2023/12/19 09:07:47;;;;;;;;;;;8.50;99.90;;;;;;4960875;28;20038;-67
2023/12/19 09:10:13;;;;;;;;;;;8.40;99.90;;;;;;4961130;28;20010;-67
2023/12/19 09:12:39;;;;;;;;;;;8.40;99.90;;;;;;4962253;28;19984;-67
2023/12/19 09:15:06;;;;;;;;;;;8.50;99.90;;;;;;4957967;28;20227;-67
2023/12/19 09:17:34;;;;;;;;;;;8.40;99.90;;;;;;4959768;28;20237;-67
2023/12/19 09:20:04;;;;;;;;;;;8.50;99.90;;;;;;4975792;28;20383;-68
2023/12/19 09:22:33;;;;;;;;;;;8.40;99.90;;;;;;4961857;28;19922;-67
2023/12/19 09:24:58;;;;;;;;;;;8.40;99.90;;;;;;4958051;28;19957;-67
2023/12/19 09:27:24;;;;;;;;;;;8.40;99.90;;;;;;4955257;28;20368;-67
2023/12/19 09:29:50;;;;;;;;;;;8.50;99.90;;;;;;4958682;28;19933;-67
2023/12/19 09:32:18;;;;;;;;;;;8.50;99.90;;;;;;4960675;28;20240;-67
2023/12/19 09:34:44;;;;;;;;;;;8.50;99.90;;;;;;4963082;28;20653;-67
2023/12/19 09:37:12;;;;;;;;;;;8.60;99.90;;;;;;4971350;28;19914;-67
2023/12/19 09:39:37;;;;;;;;;;;8.60;99.90;;;;;;4960087;28;19928;-67
2023/12/19 09:42:03;;;;;;;;;;;8.50;99.90;;;;;;4959572;28;19922;-67
2023/12/19 09:44:29;;;;;;;;;;;8.50;99.90;;;;;;4960208;28;19981;-67
2023/12/19 09:46:54;;;;;;;;;;;8.50;99.90;;;;;;4962246;28;21022;-67
2023/12/19 09:49:28;;;;;;;;;;;8.50;99.90;;;;;;4958866;28;19918;-67
2023/12/19 09:51:54;;;;;;;;;;;8.50;99.90;;;;;;4960382;28;19925;-67
2023/12/19 09:54:20;;;;;;;;;;;8.50;99.90;;;;;;4958271;28;19922;-67
2023/12/19 09:56:49;;;;;;;;;;;8.40;99.90;;;;;;4961708;28;19980;-67
2023/12/19 09:59:15;;;;;;;;;;;8.50;99.90;;;;;;4957097;28;19933;-68
2023/12/19 10:01:42;;;;;;;;;;;8.50;99.90;;;;;;4961301;28;20342;-67
2023/12/19 10:04:13;;;;;;;;;;;8.50;99.90;;;;;;4959777;28;19998;-67
2023/12/19 10:06:59;;;;;;;;;;;8.50;99.90;;;;;;4959023;28;19925;-67
2023/12/19 10:09:25;;;;;;;;;;;8.50;99.90;;;;;;4956913;28;21741;-67
2023/12/19 10:12:03;;;;;;;;;;;8.50;99.90;;;;;;4961311;28;20137;-68
2023/12/19 10:14:29;;;;;;;;;;;8.50;99.90;;;;;;4956947;28;20087;-67
2023/12/19 10:16:57;;;;;;;;;;;8.50;99.90;;;;;;4958719;28;20374;-67
2023/12/19 10:19:26;;;;;;;;;;;8.60;99.90;;;;;;4956039;28;20373;-67
2023/12/19 10:22:04;;;;;;;;;;;8.60;99.90;;;;;;4959322;28;19921;-67
2023/12/19 10:24:29;;;;;;;;;;;8.60;99.90;;;;;;4959221;28;20176;-67
2023/12/19 10:27:00;;;;;;;;;;;8.60;99.90;;;;;;4961203;28;20328;-67
2023/12/19 10:29:25;;;;;;;;;;;8.60;99.90;;;;;;4957791;28;19925;-67
2023/12/19 10:31:51;;;;;;;;;;;8.60;99.90;;;;;;4959939;28;20336;-67
2023/12/19 10:34:17;;;;;;;;;;;8.60;99.90;;;;;;4959494;28;19918;-67
2023/12/19 10:36:43;;;;;;;;;;;8.60;99.90;;;;;;4960422;28;19973;-67
2023/12/19 10:39:12;;;;;;;;;;;8.50;99.90;;;;;;4958325;28;20439;-67
2023/12/19 10:41:40;;;;;;;;;;;8.50;99.90;;;;;;4959688;28;20641;-67
2023/12/19 10:44:06;;;;;;;;;;;8.60;99.90;;;;;;4955762;28;20084;-67
2023/12/19 10:46:34;;;;;;;;;;;8.60;99.90;;;;;;4959580;28;19925;-68
2023/12/19 10:49:01;;;;;;;;;;;8.60;99.90;;;;;;4961103;28;19996;-67
2023/12/19 10:51:32;;;;;;;;;;;8.50;99.90;;;;;;4960379;28;20008;-68
2023/12/19 10:54:06;;;;;;;;;;;8.50;99.90;;;;;;4959889;28;20220;-67
2023/12/19 10:56:40;;;;;;;;;;;8.60;99.90;;;;;;4957929;28;20760;-67
2023/12/19 10:59:08;;;;;;;;;;;8.60;99.90;;;;;;4968314;28;19922;-67
2023/12/19 11:01:38;;;;;;;;;;;8.60;99.90;;;;;;4957053;28;20613;-68
2023/12/19 11:04:09;;;;;;;;;;;8.60;99.90;;;;;;4956966;28;19939;-68
2023/12/19 11:06:36;;;;;;;;;;;8.60;99.90;;;;;;4956447;28;20282;-67
2023/12/19 11:09:05;;;;;;;;;;;8.60;99.90;;;;;;4955922;28;19922;-67
2023/12/19 11:11:38;;;;;;;;;;;8.50;99.90;;;;;;4956176;28;20651;-67
2023/12/19 11:14:06;;;;;;;;;;;8.60;99.90;;;;;;4955106;28;19933;-67
2023/12/19 11:16:50;;;;;;;;;;;8.60;99.90;;;;;;4959078;28;19976;-67
2023/12/19 11:19:27;;;;;;;;;;;8.60;99.90;;;;;;4957323;28;20346;-68
2023/12/19 11:22:01;;;;;;;;;;;8.70;99.90;;;;;;4958250;28;19914;-67
2023/12/19 11:24:48;;;;;;;;;;;8.70;99.90;;;;;;4959561;28;19922;-67
2023/12/19 11:27:30;;;;;;;;;;;8.70;99.90;;;;;;4956395;28;20115;-68
2023/12/19 11:29:56;;;;;;;;;;;8.80;99.90;;;;;;4958570;28;19929;-68
2023/12/19 11:32:35;;;;;;;;;;;8.60;99.90;;;;;;4958195;28;19921;-67
2023/12/19 11:35:09;;;;;;;;;;;8.70;99.90;;;;;;4957055;28;19922;-67
2023/12/19 11:37:35;;;;;;;;;;;8.80;99.90;;;;;;4957812;28;20013;-67
2023/12/19 11:40:01;;;;;;;;;;;8.80;99.90;;;;;;4955957;28;20027;-68
2023/12/19 11:42:39;;;;;;;;;;;8.80;99.90;;;;;;4959070;28;19928;-67
2023/12/19 11:45:17;;;;;;;;;;;8.80;99.90;;;;;;4956084;28;20487;-67
2023/12/19 11:47:45;;;;;;;;;;;8.70;99.90;;;;;;4960615;28;19953;-67
2023/12/19 11:50:30;;;;;;;;;;;8.80;99.90;;;;;;4957306;28;20387;-68
2023/12/19 11:52:56;;;;;;;;;;;8.80;99.90;;;;;;4956338;28;19918;-67
2023/12/19 11:55:23;;;;;;;;;;;8.80;99.90;;;;;;4960116;28;20297;-68
2023/12/19 11:57:48;;;;;;;;;;;8.80;99.90;;;;;;4960754;28;19984;-68
2023/12/19 12:00:14;;;;;;;;;;;8.80;99.90;;;;;;4958891;28;20657;-68
2023/12/19 12:02:39;;;;;;;;;;;8.80;99.90;;;;;;4961485;28;19922;-67
2023/12/19 12:05:13;;;;;;;;;;;8.80;99.90;;;;;;4959963;28;22225;-67
2023/12/19 12:07:48;;;;;;;;;;;8.90;99.90;;;;;;4960520;28;19926;-67
2023/12/19 12:10:23;;;;;;;;;;;8.90;99.90;;;;;;4959452;28;19925;-67
2023/12/19 12:12:49;;;;;;;;;;;8.90;99.90;;;;;;4959868;28;20500;-67
2023/12/19 12:15:17;;;;;;;;;;;8.90;99.90;;;;;;4959970;28;20298;-67
2023/12/19 12:17:44;;;;;;;;;;;9.00;99.90;;;;;;4961367;28;19969;-67
2023/12/19 12:20:09;;;;;;;;;;;9.00;99.90;;;;;;4960044;28;19948;-67
2023/12/19 12:22:35;;;;;;;;;;;9.00;99.90;;;;;;4960610;28;19922;-67
2023/12/19 12:25:01;;;;;;;;;;;9.10;99.90;;;;;;4959627;28;19918;-67
2023/12/19 12:27:27;;;;;;;;;;;9.10;99.90;;;;;;4960990;28;19930;-67
2023/12/19 12:29:53;;;;;;;;;;;9.10;99.90;;;;;;4959215;28;20106;-67
2023/12/19 12:32:22;;;;;;;;;;;9.10;99.90;;;;;;4959721;28;20388;-67
2023/12/19 12:34:50;;;;;;;;;;;9.10;99.90;;;;;;4961706;28;19918;-67
2023/12/19 12:37:18;;;;;;;;;;;9.10;99.90;;;;;;4965247;28;19928;-67
2023/12/19 12:39:47;;;;;;;;;;;9.00;99.90;;;;;;4963893;28;19926;-67
2023/12/19 12:42:20;;;;;;;;;;;9.10;99.90;;;;;;4964896;28;22480;-67
2023/12/19 12:44:46;;;;;;;;;;;9.10;99.90;;;;;;4959909;28;19917;-67
2023/12/19 12:47:22;;;;;;;;;;;9.10;99.90;;;;;;4997289;23;20058;-67
2023/12/19 12:49:59;;;;;;;;;;;9.10;99.90;;;;;;5042702;28;20314;-67
2023/12/19 12:52:25;;;;;;;;;;;9.10;99.90;;;;;;5037462;28;19955;-67
2023/12/19 12:55:00;;;;;;;;;;;9.10;99.90;;;;;;5043252;28;20018;-67
2023/12/19 12:57:25;;;;;;;;;;;9.00;99.90;;;;;;5041823;28;19912;-67
2023/12/19 12:59:51;;;;;;;;;;;9.10;99.90;;;;;;5040422;28;19913;-67
2023/12/19 13:02:16;;;;;;;;;;;9.10;99.90;;;;;;5043752;28;19963;-67
2023/12/19 13:04:44;;;;;;;;;;;9.10;99.90;;;;;;5045465;28;19913;-67
2023/12/19 13:07:09;;;;;;;;;;;9.10;99.90;;;;;;5041578;28;19925;-67
2023/12/19 13:09:35;;;;;;;;;;;9.10;99.90;;;;;;5042623;28;19920;-67
2023/12/19 13:12:01;;;;;;;;;;;9.10;99.90;;;;;;5039447;28;19917;-67
2023/12/19 13:14:26;;;;;;;;;;;9.10;99.90;;;;;;5031697;28;19917;-67
2023/12/19 13:16:52;;;;;;;;;;;9.10;99.90;;;;;;5020383;28;19927;-67
2023/12/19 13:19:18;;;;;;;;;;;9.10;99.90;;;;;;5020683;28;19927;-67
2023/12/19 13:21:43;;;;;;;;;;;9.10;99.90;;;;;;5020611;28;19912;-67
2023/12/19 13:24:12;;;;;;;;;;;9.10;99.90;;;;;;5019153;28;19927;-67
2023/12/19 13:26:41;;;;;;;;;;;9.20;99.90;;;;;;5024342;28;20334;-67
2023/12/19 13:29:06;;;;;;;;;;;9.20;99.90;;;;;;5018319;28;19921;-67
2023/12/19 13:31:32;;;;;;;;;;;9.10;99.90;;;;;;5020898;28;19974;-67
2023/12/19 13:34:01;;;;;;;;;;;9.10;99.90;;;;;;5019051;28;20238;-67
2023/12/19 13:36:26;;;;;;;;;;;9.20;99.90;;;;;;5019906;28;19924;-67
2023/12/19 13:38:53;;;;;;;;;;;9.20;99.90;;;;;;5018041;28;20038;-67
2023/12/19 13:41:21;;;;;;;;;;;9.20;99.90;;;;;;5020348;28;20092;-67
2023/12/19 13:43:46;;;;;;;;;;;9.20;99.90;;;;;;5018586;28;19924;-67
2023/12/19 13:46:12;;;;;;;;;;;9.10;99.90;;;;;;5018721;28;19921;-67
2023/12/19 13:48:37;;;;;;;;;;;9.10;99.90;;;;;;5018299;28;19946;-67
2023/12/19 13:51:03;;;;;;;;;;;9.10;99.90;;;;;;5020900;28;20428;-67
2023/12/19 13:53:29;;;;;;;;;;;9.10;99.90;;;;;;5019199;28;20361;-67
2023/12/19 13:55:57;;;;;;;;;;;9.20;99.90;;;;;;5018112;28;19956;-67
2023/12/19 13:58:23;;;;;;;;;;;9.10;99.90;;;;;;5017946;28;19921;-67
2023/12/19 14:00:51;;;;;;;;;;;9.10;99.90;;;;;;5016965;28;19920;-68
2023/12/19 14:03:17;;;;;;;;;;;9.10;99.90;;;;;;5018516;28;19920;-67
2023/12/19 14:05:42;;;;;;;;;;;9.10;99.90;;;;;;5018041;28;20365;-67
2023/12/19 14:08:09;;;;;;;;;;;9.20;99.90;;;;;;5022277;28;20041;-67
2023/12/19 14:10:35;;;;;;;;;;;9.10;99.90;;;;;;5021918;28;20066;-67
2023/12/19 14:13:03;;;;;;;;;;;9.10;99.90;;;;;;5021561;28;19925;-67
2023/12/19 14:15:31;;;;;;;;;;;9.20;99.90;;;;;;5019571;28;19920;-67
2023/12/19 14:17:57;;;;;;;;;;;9.20;99.90;;;;;;5020096;28;20012;-67
2023/12/19 14:20:22;;;;;;;;;;;9.20;99.90;;;;;;5019548;28;19921;-67
2023/12/19 14:22:48;;;;;;;;;;;9.20;99.90;;;;;;5018691;28;20103;-67
2023/12/19 14:25:16;;;;;;;;;;;9.10;99.90;;;;;;5016866;28;19966;-67
2023/12/19 14:27:44;;;;;;;;;;;9.10;99.90;;;;;;5019335;28;20122;-67
2023/12/19 14:30:10;;;;;;;;;;;9.10;99.90;;;;;;5017234;28;20506;-67
2023/12/19 14:32:36;;;;;;;;;;;9.10;99.90;;;;;;5019636;28;20243;-67